Time;durP1;ratioP1;P1;durP2;ratioP2;P2;SDS_P1;SDS_P2;PMS_P1;PMS_P2;Temp;Humidity;BMP_temperature;BMP_pressure;BME280_temperature;BME280_humidity;BME280_pressure;Samples;Min_cycle;Max_cycle;Signal;HPM_P1;HPM_P2
2023/01/03 00:01:30;;;;;;;2.27;1.23;;;10.50;54.40;;;;;;5009938;28;46654;-71
2023/01/03 00:03:57;;;;;;;4.23;1.40;;;10.40;55.20;;;;;;5006798;28;46598;-71
2023/01/03 00:06:28;;;;;;;2.17;1.00;;;10.40;55.60;;;;;;5012759;28;46411;-72
2023/01/03 00:08:55;;;;;;;2.43;1.20;;;10.40;55.90;;;;;;5008684;28;46501;-72
2023/01/03 00:14:13;;;;;;;3.30;1.33;;;10.30;56.20;;;;;;4996556;28;46527;-71
2023/01/03 00:16:39;;;;;;;3.13;1.37;;;10.30;56.10;;;;;;5010137;28;46535;-72
2023/01/03 00:19:10;;;;;;;2.70;1.30;;;10.30;55.80;;;;;;5010309;28;46367;-71
2023/01/03 00:21:36;;;;;;;4.70;1.43;;;10.30;55.50;;;;;;5010534;28;46043;-72
2023/01/03 00:24:03;;;;;;;4.13;1.93;;;10.30;55.10;;;;;;5010944;28;45792;-71
2023/01/03 00:26:29;;;;;;;2.47;1.50;;;10.40;55.00;;;;;;5015205;28;46392;-71
2023/01/03 00:28:55;;;;;;;5.63;1.50;;;10.40;55.00;;;;;;5008763;28;46300;-71
2023/01/03 00:31:20;;;;;;;3.10;1.63;;;10.40;55.00;;;;;;5011370;28;46677;-71
2023/01/03 00:33:46;;;;;;;3.30;1.30;;;10.40;55.20;;;;;;5009992;28;46391;-71
2023/01/03 00:36:12;;;;;;;2.20;1.40;;;10.30;55.70;;;;;;5011093;28;46527;-71
2023/01/03 00:38:38;;;;;;;4.03;1.30;;;10.20;55.90;;;;;;5011896;28;45888;-70
2023/01/03 00:41:05;;;;;;;9.23;1.07;;;10.20;56.00;;;;;;5012619;28;47239;-72
2023/01/03 00:43:30;;;;;;;3.50;1.00;;;10.10;55.80;;;;;;5011894;28;45790;-71
2023/01/03 00:45:56;;;;;;;2.03;1.03;;;10.00;55.90;;;;;;5008973;28;46350;-72
2023/01/03 00:48:22;;;;;;;4.43;0.90;;;9.90;56.90;;;;;;5011003;28;46581;-71
2023/01/03 00:50:47;;;;;;;1.63;0.80;;;9.80;56.90;;;;;;5010737;28;46360;-71
2023/01/03 00:53:13;;;;;;;2.07;0.93;;;9.80;57.10;;;;;;5011452;28;45829;-71
2023/01/03 00:55:39;;;;;;;1.50;0.80;;;9.70;56.90;;;;;;5010403;28;46393;-70
2023/01/03 00:58:05;;;;;;;1.77;0.90;;;9.80;56.80;;;;;;5010873;28;46352;-71
2023/01/03 01:00:30;;;;;;;1.77;0.93;;;9.80;56.40;;;;;;5012652;28;46609;-72
2023/01/03 01:02:56;;;;;;;1.90;0.90;;;9.90;56.00;;;;;;5012309;28;46524;-71
2023/01/03 01:05:22;;;;;;;2.60;0.90;;;9.90;55.60;;;;;;5011607;28;46430;-71
2023/01/03 01:07:47;;;;;;;1.30;0.80;;;9.90;55.60;;;;;;5012405;28;46599;-72
2023/01/03 01:10:13;;;;;;;1.40;0.80;;;9.90;55.60;;;;;;5013999;28;47175;-71
2023/01/03 01:12:38;;;;;;;1.70;0.90;;;9.90;55.60;;;;;;5018996;28;46363;-72
2023/01/03 01:15:05;;;;;;;2.13;0.70;;;9.90;55.20;;;;;;5011824;28;46549;-70
2023/01/03 01:17:31;;;;;;;3.53;0.77;;;9.90;55.10;;;;;;5010909;28;46642;-71
2023/01/03 01:19:56;;;;;;;1.97;0.90;;;9.90;55.10;;;;;;5013891;28;46989;-71
2023/01/03 01:22:22;;;;;;;1.30;0.77;;;9.90;55.10;;;;;;5014466;28;46297;-70
2023/01/03 01:24:48;;;;;;;1.60;1.00;;;9.90;54.90;;;;;;5010368;28;46446;-71
2023/01/03 01:27:14;;;;;;;1.40;0.70;;;9.90;55.90;;;;;;5011883;28;46460;-71
2023/01/03 01:29:39;;;;;;;1.77;0.70;;;9.90;54.70;;;;;;5010335;28;47293;-70
2023/01/03 01:32:05;;;;;;;1.20;0.60;;;9.80;54.80;;;;;;5013700;28;46475;-71
2023/01/03 01:34:32;;;;;;;1.80;1.00;;;9.80;54.80;;;;;;5011827;28;46492;-70
2023/01/03 01:36:57;;;;;;;3.83;0.90;;;9.80;55.00;;;;;;5017729;28;46403;-71
2023/01/03 01:39:25;;;;;;;1.63;0.80;;;9.70;55.20;;;;;;5009867;28;46903;-70
2023/01/03 01:45:02;;;;;;;1.50;0.90;;;9.70;54.30;;;;;;5007323;28;46418;-72
2023/01/03 01:47:48;;;;;;;1.80;0.90;;;9.70;55.30;;;;;;5008839;28;46297;-71
2023/01/03 01:50:35;;;;;;;2.50;1.23;;;9.70;55.30;;;;;;5011978;28;47224;-71
2023/01/03 01:53:06;;;;;;;2.30;1.00;;;9.70;55.30;;;;;;5010522;28;46378;-70
2023/01/03 01:55:52;;;;;;;3.50;0.90;;;9.70;55.20;;;;;;5010674;28;46430;-73
2023/01/03 01:58:21;;;;;;;2.07;0.80;;;9.70;55.30;;;;;;5009673;28;46580;-71
2023/01/03 02:00:46;;;;;;;1.60;0.97;;;9.70;55.20;;;;;;5011466;28;46955;-70
2023/01/03 02:03:12;;;;;;;1.87;0.80;;;9.80;55.10;;;;;;5009765;28;46351;-71
2023/01/03 02:05:43;;;;;;;1.50;0.90;;;9.80;55.00;;;;;;5013826;28;46424;-71
2023/01/03 02:08:09;;;;;;;1.33;0.73;;;9.90;54.90;;;;;;5011698;28;46393;-71
2023/01/03 02:11:13;;;;;;;1.57;1.00;;;9.90;54.70;;;;;;5007727;28;46521;-71
2023/01/03 02:13:57;;;;;;;2.00;0.93;;;10.00;53.80;;;;;;5011183;28;46450;-71
2023/01/03 02:16:38;;;;;;;2.33;1.17;;;10.00;53.60;;;;;;5011551;28;46502;-72
2023/01/03 02:19:28;;;;;;;4.80;0.93;;;10.00;53.60;;;;;;5010989;28;45923;-72
2023/01/03 02:22:26;;;;;;;2.20;1.03;;;10.10;53.60;;;;;;5009327;28;46524;-72
2023/01/03 02:25:10;;;;;;;2.10;1.00;;;10.10;53.60;;;;;;5008870;28;46536;-72
2023/01/03 02:28:11;;;;;;;2.17;0.90;;;10.10;53.60;;;;;;5008786;28;46479;-71
2023/01/03 02:30:53;;;;;;;2.63;1.30;;;10.10;55.00;;;;;;5012284;28;46681;-71
2023/01/03 02:33:35;;;;;;;1.67;1.00;;;10.00;53.70;;;;;;5011495;28;46396;-71
2023/01/03 02:36:19;;;;;;;1.90;0.90;;;10.00;53.90;;;;;;5010187;28;46591;-71
2023/01/03 02:38:47;;;;;;;1.37;0.87;;;9.90;54.80;;;;;;5009343;28;46453;-71
2023/01/03 02:41:38;;;;;;;3.10;0.93;;;9.90;55.00;;;;;;5009546;28;46044;-71
2023/01/03 02:44:03;;;;;;;1.80;1.10;;;10.00;53.90;;;;;;5010576;28;46332;-71
2023/01/03 02:46:41;;;;;;;1.90;1.10;;;9.90;55.00;;;;;;5015901;28;46823;-70
2023/01/03 02:49:26;;;;;;;1.70;1.00;;;9.90;55.00;;;;;;5011194;28;46399;-70
2023/01/03 02:51:57;;;;;;;1.40;0.80;;;9.90;54.90;;;;;;5008146;28;46457;-72
2023/01/03 02:54:30;;;;;;;2.00;1.00;;;9.90;55.00;;;;;;5009103;28;46580;-72
2023/01/03 02:57:08;;;;;;;2.70;1.00;;;9.80;55.20;;;;;;5008540;28;46470;-72
2023/01/03 02:59:51;;;;;;;1.63;0.97;;;9.80;55.40;;;;;;5011212;28;46648;-70
2023/01/03 03:02:20;;;;;;;1.37;0.90;;;9.70;55.30;;;;;;5009075;28;46684;-71
2023/01/03 03:04:51;;;;;;;2.53;1.10;;;9.70;54.50;;;;;;5010122;28;46298;-72
2023/01/03 03:07:31;;;;;;;1.70;1.00;;;9.60;55.50;;;;;;5009242;28;45822;-71
2023/01/03 03:15:34;;;;;;;2.00;1.20;;;9.60;55.50;;;;;;5006265;28;46316;-71
2023/01/03 03:18:06;;;;;;;1.90;1.07;;;9.50;55.50;;;;;;5008312;28;46418;-70
2023/01/03 03:26:29;;;;;;;1.60;0.90;;;9.50;55.50;;;;;;5007862;28;46049;-71
2023/01/03 03:29:03;;;;;;;1.87;1.13;;;9.50;55.40;;;;;;5010222;28;46437;-73
2023/01/03 03:31:43;;;;;;;1.80;1.10;;;9.60;55.40;;;;;;5010209;28;46395;-73
2023/01/03 03:34:17;;;;;;;2.47;1.20;;;9.60;55.30;;;;;;5009559;28;46415;-72
2023/01/03 03:36:48;;;;;;;1.70;1.00;;;9.50;55.10;;;;;;5007185;28;47060;-72
2023/01/03 03:45:03;;;;;;;2.40;1.07;;;9.50;55.30;;;;;;5009160;28;46677;-72
2023/01/03 03:47:31;;;;;;;2.50;1.20;;;9.50;55.40;;;;;;5007421;28;46955;-71
2023/01/03 03:50:01;;;;;;;2.00;1.10;;;9.40;55.30;;;;;;5005903;28;46556;-72
2023/01/03 03:52:29;;;;;;;2.00;1.30;;;9.40;55.50;;;;;;5009082;28;46390;-71
2023/01/03 03:55:05;;;;;;;1.70;1.10;;;9.50;56.80;;;;;;5008545;28;46369;-72
2023/01/03 03:57:35;;;;;;;1.80;1.03;;;9.50;55.60;;;;;;5008882;28;46558;-71
2023/01/03 04:00:10;;;;;;;1.60;1.00;;;9.40;55.50;;;;;;5008033;28;46421;-72
2023/01/03 04:02:37;;;;;;;1.80;1.07;;;9.50;55.60;;;;;;5008556;28;46395;-72
2023/01/03 04:05:06;;;;;;;2.57;1.50;;;9.60;55.70;;;;;;5007532;28;46525;-71
2023/01/03 04:07:33;;;;;;;2.43;1.07;;;9.60;55.60;;;;;;5009148;28;46534;-71
2023/01/03 04:09:59;;;;;;;1.70;1.13;;;9.60;55.60;;;;;;5013761;28;46376;-72
2023/01/03 04:12:24;;;;;;;5.47;1.20;;;9.50;55.50;;;;;;5012961;28;46534;-71
2023/01/03 04:14:50;;;;;;;1.70;1.00;;;9.60;55.50;;;;;;5014662;28;45876;-71
2023/01/03 04:17:16;;;;;;;1.47;1.00;;;9.50;55.50;;;;;;5012134;28;46429;-71
2023/01/03 04:19:41;;;;;;;1.67;1.10;;;9.50;55.70;;;;;;5009516;28;46382;-71
2023/01/03 04:22:07;;;;;;;1.77;1.10;;;9.40;56.00;;;;;;5012912;28;46398;-72
2023/01/03 04:24:32;;;;;;;2.27;1.13;;;9.50;56.10;;;;;;5012088;28;46737;-71
2023/01/03 04:26:58;;;;;;;1.80;1.20;;;9.50;56.00;;;;;;5011521;28;47167;-70
2023/01/03 04:29:23;;;;;;;2.77;1.27;;;9.50;55.80;;;;;;5010937;28;46335;-71
2023/01/03 04:31:49;;;;;;;1.67;0.90;;;9.50;55.50;;;;;;5012172;28;46396;-71
2023/01/03 04:34:15;;;;;;;2.93;1.20;;;9.60;55.70;;;;;;5011640;28;45904;-72
2023/01/03 04:36:40;;;;;;;3.43;1.40;;;9.60;56.50;;;;;;5011511;28;47229;-71
2023/01/03 04:39:06;;;;;;;2.23;1.30;;;9.50;58.10;;;;;;5010957;28;46496;-70
2023/01/03 04:41:32;;;;;;;2.93;1.20;;;9.50;59.60;;;;;;5010043;28;46478;-71
2023/01/03 04:44:00;;;;;;;2.60;1.30;;;9.60;59.60;;;;;;5009577;28;46331;-71
2023/01/03 04:46:30;;;;;;;1.97;1.30;;;9.60;59.30;;;;;;5011221;28;46983;-71
2023/01/03 04:48:56;;;;;;;1.73;1.13;;;9.70;59.10;;;;;;5011898;28;46337;-72
2023/01/03 04:51:22;;;;;;;1.67;1.00;;;9.60;58.80;;;;;;5012718;28;45913;-75
2023/01/03 04:53:47;;;;;;;2.40;1.03;;;9.70;58.80;;;;;;5011390;28;46453;-71
2023/01/03 04:56:13;;;;;;;1.90;1.10;;;9.70;58.70;;;;;;5010251;28;46234;-72
2023/01/03 04:58:39;;;;;;;1.60;1.10;;;9.60;58.70;;;;;;5009305;28;46477;-72
2023/01/03 05:01:09;;;;;;;4.70;1.30;;;9.60;58.60;;;;;;5012406;28;46470;-73
2023/01/03 05:03:36;;;;;;;2.10;1.10;;;9.70;58.70;;;;;;5010647;28;46449;-72
2023/01/03 05:06:07;;;;;;;2.07;1.33;;;9.70;58.70;;;;;;5011086;28;47805;-72
2023/01/03 05:08:34;;;;;;;1.60;1.10;;;9.80;58.50;;;;;;5013293;28;46577;-72
2023/01/03 05:11:01;;;;;;;2.40;1.30;;;9.70;58.50;;;;;;5011587;28;46399;-72
2023/01/03 05:13:26;;;;;;;3.87;1.50;;;9.70;58.60;;;;;;5010883;28;46477;-72
2023/01/03 05:15:52;;;;;;;1.97;1.37;;;9.50;58.60;;;;;;5010432;28;47321;-72
2023/01/03 05:18:18;;;;;;;2.80;1.57;;;9.50;58.30;;;;;;5010176;28;46498;-72
2023/01/03 05:26:20;;;;;;;2.60;1.50;;;9.40;58.10;;;;;;5009622;28;46454;-72
2023/01/03 05:28:49;;;;;;;1.77;1.33;;;9.50;59.50;;;;;;5010042;28;46481;-72
2023/01/03 05:31:15;;;;;;;2.43;1.70;;;9.50;58.30;;;;;;5013150;28;45832;-72
2023/01/03 05:33:40;;;;;;;2.77;1.50;;;9.50;58.10;;;;;;5011885;28;46431;-76
2023/01/03 05:36:07;;;;;;;2.40;1.20;;;9.50;57.90;;;;;;5012697;28;46394;-72
2023/01/03 05:38:33;;;;;;;3.57;1.67;;;9.50;58.00;;;;;;5011693;28;46502;-73
2023/01/03 05:40:58;;;;;;;3.07;1.67;;;9.50;58.20;;;;;;5006894;28;46370;-74
2023/01/03 05:43:24;;;;;;;1.50;1.07;;;9.50;58.20;;;;;;5011193;28;46426;-72
2023/01/03 05:45:51;;;;;;;1.80;1.20;;;9.60;58.30;;;;;;5009227;28;46301;-73
2023/01/03 05:48:17;;;;;;;3.67;1.50;;;9.60;58.30;;;;;;5011483;28;46559;-70
2023/01/03 05:50:44;;;;;;;2.50;1.40;;;9.70;59.40;;;;;;5009171;28;46459;-73
2023/01/03 05:53:09;;;;;;;2.40;1.37;;;9.70;58.20;;;;;;5008475;28;46398;-73
2023/01/03 05:55:36;;;;;;;2.93;1.30;;;9.70;58.20;;;;;;5008844;28;46461;-72
2023/01/03 05:58:03;;;;;;;2.47;1.50;;;9.70;58.20;;;;;;5009730;28;46481;-72
2023/01/03 06:00:29;;;;;;;2.30;1.47;;;9.70;58.40;;;;;;5008535;28;46367;-72
2023/01/03 06:02:55;;;;;;;2.47;1.80;;;9.60;58.40;;;;;;5012020;28;46620;-72
2023/01/03 06:05:20;;;;;;;2.40;1.43;;;9.60;58.70;;;;;;5009415;28;46037;-72
2023/01/03 06:07:46;;;;;;;2.90;1.60;;;9.70;58.80;;;;;;5010781;28;46303;-72
2023/01/03 06:10:11;;;;;;;3.33;1.97;;;9.70;58.70;;;;;;5010491;28;46386;-71
2023/01/03 06:12:37;;;;;;;1.83;1.23;;;9.70;58.70;;;;;;5011387;28;46376;-72
2023/01/03 06:15:03;;;;;;;2.10;1.40;;;9.60;58.70;;;;;;5009484;28;46455;-73
2023/01/03 06:20:14;;;;;;;3.50;1.60;;;9.50;58.80;;;;;;5011902;28;45822;-72
2023/01/03 06:22:39;;;;;;;3.20;1.63;;;9.50;58.80;;;;;;5017055;28;45970;-74
2023/01/03 06:25:05;;;;;;;2.47;1.80;;;9.50;58.80;;;;;;5012591;28;48142;-71
2023/01/03 06:27:31;;;;;;;2.93;1.83;;;9.50;58.80;;;;;;5010516;28;46518;-72
2023/01/03 06:29:56;;;;;;;2.80;1.67;;;9.60;58.70;;;;;;5007539;28;46323;-72
2023/01/03 06:32:22;;;;;;;3.90;1.83;;;9.70;58.60;;;;;;5009999;28;46455;-73
2023/01/03 06:34:48;;;;;;;3.23;1.80;;;9.60;57.70;;;;;;5010151;28;46533;-73
2023/01/03 06:37:14;;;;;;;2.60;1.50;;;9.60;58.80;;;;;;5010870;28;46402;-72
2023/01/03 06:39:39;;;;;;;2.60;1.30;;;9.60;58.90;;;;;;5013829;28;45837;-72
2023/01/03 06:42:38;;;;;;;2.00;1.43;;;9.60;58.90;;;;;;5005433;28;46438;-72
2023/01/03 06:53:19;;;;;;;2.27;1.20;;;9.40;59.30;;;;;;5010068;28;46627;-72
2023/01/03 06:55:45;;;;;;;1.90;1.27;;;9.40;59.50;;;;;;5015301;28;49240;-73
2023/01/03 06:58:12;;;;;;;2.10;1.30;;;9.40;59.50;;;;;;5011262;28;46491;-72
2023/01/03 07:00:42;;;;;;;1.70;1.10;;;9.40;59.50;;;;;;5010664;28;46417;-72
2023/01/03 07:03:08;;;;;;;5.10;1.40;;;9.30;59.60;;;;;;5010787;28;46507;-73
2023/01/03 07:05:33;;;;;;;3.50;1.83;;;9.30;59.70;;;;;;5008522;28;46435;-72
2023/01/03 07:07:59;;;;;;;10.00;4.80;;;8.90;59.40;;;;;;5007557;28;46432;-72
2023/01/03 07:10:25;;;;;;;7.60;3.03;;;9.20;59.60;;;;;;5011464;28;46438;-72
2023/01/03 07:15:34;;;;;;;3.43;2.20;;;9.10;59.50;;;;;;5008851;28;46409;-74
2023/01/03 07:18:00;;;;;;;3.33;2.30;;;9.10;59.30;;;;;;5009609;28;46591;-72
2023/01/03 07:20:26;;;;;;;4.50;3.43;;;9.00;59.20;;;;;;5015957;28;46501;-71
2023/01/03 07:22:52;;;;;;;5.20;4.00;;;9.10;59.40;;;;;;5009793;28;46335;-72
2023/01/03 07:25:18;;;;;;;9.53;4.50;;;9.10;59.40;;;;;;5010357;28;46629;-73
2023/01/03 07:27:52;;;;;;;6.77;4.20;;;9.20;59.70;;;;;;5011085;28;46397;-72
2023/01/03 07:30:18;;;;;;;7.07;4.10;;;9.20;59.50;;;;;;5006287;28;46338;-73
2023/01/03 07:32:43;;;;;;;6.20;3.93;;;9.20;59.40;;;;;;5008445;28;46789;-71
2023/01/03 07:35:09;;;;;;;5.17;3.57;;;9.20;59.20;;;;;;5006113;28;47088;-72
2023/01/03 07:37:34;;;;;;;4.57;3.30;;;9.10;59.40;;;;;;5012373;28;46370;-72
2023/01/03 07:40:00;;;;;;;6.10;3.90;;;9.10;59.40;;;;;;5010253;28;46347;-72
2023/01/03 07:45:10;;;;;;;15.13;7.23;;;9.10;59.40;;;;;;5007423;28;46576;-72
2023/01/03 07:47:35;;;;;;;11.90;6.37;;;9.20;59.40;;;;;;5008836;28;46427;-72
2023/01/03 07:50:01;;;;;;;8.80;6.20;;;9.10;59.40;;;;;;5008870;28;46321;-72
2023/01/03 07:52:26;;;;;;;9.67;6.30;;;9.10;59.30;;;;;;5007556;28;46375;-72
2023/01/03 07:54:52;;;;;;;12.30;7.50;;;9.10;59.50;;;;;;5008776;28;47004;-72
2023/01/03 07:57:18;;;;;;;9.40;4.43;;;9.20;59.60;;;;;;5008028;28;46446;-72
2023/01/03 07:59:43;;;;;;;6.33;4.10;;;9.30;59.80;;;;;;5008416;28;45820;-73
2023/01/03 08:02:09;;;;;;;5.53;2.67;;;9.30;59.80;;;;;;5011199;28;46055;-72
2023/01/03 08:04:34;;;;;;;4.00;2.90;;;9.30;60.00;;;;;;5007347;28;46425;-72
2023/01/03 08:07:00;;;;;;;3.97;2.70;;;9.20;60.10;;;;;;5021816;28;46443;-73
2023/01/03 08:14:54;;;;;;;6.13;2.40;;;9.10;60.50;;;;;;5007867;28;46445;-72
2023/01/03 08:17:19;;;;;;;4.33;2.60;;;9.20;60.50;;;;;;5006862;28;46442;-72
2023/01/03 08:19:45;;;;;;;5.20;3.23;;;9.30;61.10;;;;;;5008371;28;46466;-73
2023/01/03 08:22:10;;;;;;;4.50;2.80;;;9.30;62.50;;;;;;5009718;28;46041;-71
2023/01/03 08:24:36;;;;;;;3.70;2.57;;;9.50;61.30;;;;;;5008390;28;47099;-71
2023/01/03 08:27:03;;;;;;;5.53;2.40;;;9.50;62.30;;;;;;5007844;28;46320;-72
2023/01/03 08:29:29;;;;;;;5.27;1.70;;;9.50;62.20;;;;;;5008425;28;46600;-72
2023/01/03 08:31:56;;;;;;;4.10;1.77;;;9.50;62.10;;;;;;5009417;28;46015;-71
2023/01/03 08:34:27;;;;;;;2.93;2.10;;;9.60;61.80;;;;;;5008450;28;47131;-71
2023/01/03 08:37:00;;;;;;;2.40;1.70;;;9.50;61.90;;;;;;5009107;28;46367;-73
2023/01/03 08:39:31;;;;;;;3.30;2.00;;;9.40;61.70;;;;;;5010851;28;46338;-73
2023/01/03 08:42:01;;;;;;;2.47;1.70;;;9.60;61.70;;;;;;5011037;28;46649;-71
2023/01/03 08:44:26;;;;;;;11.90;2.07;;;9.70;61.70;;;;;;5007451;28;47235;-72
2023/01/03 08:46:54;;;;;;;3.20;2.10;;;9.70;61.60;;;;;;5007042;28;46429;-73
2023/01/03 08:49:20;;;;;;;2.70;1.87;;;9.70;61.60;;;;;;5007279;28;45995;-72
2023/01/03 08:51:46;;;;;;;7.63;2.00;;;9.70;61.40;;;;;;5008585;28;45798;-72
2023/01/03 08:54:12;;;;;;;17.77;10.60;;;9.70;61.50;;;;;;5012557;28;46442;-71
2023/01/03 08:56:38;;;;;;;30.87;17.27;;;9.70;61.60;;;;;;5012471;28;46375;-72
2023/01/03 08:59:04;;;;;;;43.10;22.60;;;9.70;61.50;;;;;;5010409;28;46487;-72
2023/01/03 09:01:30;;;;;;;22.80;12.10;;;9.70;61.40;;;;;;5011597;28;46418;-72
2023/01/03 09:03:55;;;;;;;9.60;5.90;;;9.70;61.20;;;;;;5008827;28;46815;-73
2023/01/03 09:06:21;;;;;;;7.90;3.80;;;9.70;61.20;;;;;;5012444;28;47349;-72
2023/01/03 09:08:47;;;;;;;5.77;3.80;;;9.70;61.20;;;;;;5014348;28;46343;-72
2023/01/03 09:11:12;;;;;;;5.37;3.30;;;9.60;61.00;;;;;;5010953;28;46280;-69
2023/01/03 09:13:38;;;;;;;6.17;4.40;;;9.60;60.80;;;;;;5008655;28;48274;-73
2023/01/03 09:16:05;;;;;;;7.50;4.50;;;9.60;60.60;;;;;;5012473;28;46325;-72
2023/01/03 09:18:31;;;;;;;8.00;5.30;;;9.70;60.40;;;;;;5010543;28;46468;-72
2023/01/03 09:20:57;;;;;;;7.50;4.40;;;9.70;60.30;;;;;;5011324;28;45898;-71
2023/01/03 09:23:22;;;;;;;5.83;4.70;;;9.70;60.00;;;;;;5012211;28;47091;-73
2023/01/03 09:25:48;;;;;;;9.97;5.87;;;9.80;60.00;;;;;;5009577;28;46534;-72
2023/01/03 09:28:14;;;;;;;9.73;3.97;;;9.80;59.70;;;;;;5011346;28;46953;-71
2023/01/03 09:30:39;;;;;;;5.50;3.87;;;9.90;59.70;;;;;;5008711;28;46561;-72
2023/01/03 09:33:05;;;;;;;5.53;3.90;;;10.00;58.50;;;;;;5009008;28;46556;-71
2023/01/03 09:35:31;;;;;;;5.50;4.10;;;10.00;58.30;;;;;;5009550;28;46327;-74
2023/01/03 09:37:57;;;;;;;5.37;4.00;;;10.20;57.80;;;;;;5009347;28;46450;-72
2023/01/03 09:40:23;;;;;;;4.90;3.47;;;10.30;57.70;;;;;;5008892;28;46707;-72
2023/01/03 09:45:35;;;;;;;6.87;3.67;;;10.40;58.00;;;;;;5012254;28;46347;-72
2023/01/03 09:48:02;;;;;;;4.97;3.30;;;10.40;57.90;;;;;;5010447;28;45854;-72
2023/01/03 09:50:32;;;;;;;4.63;2.87;;;10.40;58.00;;;;;;5009202;28;46403;-74
2023/01/03 10:04:42;;;;;;;8.60;3.70;;;10.40;58.30;;;;;;5004146;28;46426;-71
2023/01/03 10:07:45;;;;;;;5.77;4.00;;;10.30;58.50;;;;;;5010979;28;46431;-72
2023/01/03 10:10:35;;;;;;;6.50;3.60;;;10.30;58.50;;;;;;5009505;28;46610;-72
2023/01/03 10:13:40;;;;;;;7.93;3.90;;;10.30;58.50;;;;;;5005476;28;46521;-75
2023/01/03 10:16:14;;;;;;;5.80;3.57;;;10.30;58.60;;;;;;4997731;28;48821;-73
2023/01/03 10:18:58;;;;;;;6.80;4.33;;;10.30;58.50;;;;;;5006652;28;46484;-73
2023/01/03 10:21:58;;;;;;;8.30;4.13;;;10.30;58.40;;;;;;5012058;28;46428;-69
2023/01/03 10:24:29;;;;;;;6.93;4.30;;;10.30;58.30;;;;;;5009143;28;46483;-74
2023/01/03 10:27:06;;;;;;;7.33;4.90;;;10.30;58.10;;;;;;5008026;28;46369;-73
2023/01/03 10:29:31;;;;;;;6.73;4.40;;;10.30;58.20;;;;;;5009794;28;46345;-72
2023/01/03 10:32:12;;;;;;;7.53;4.90;;;10.30;58.20;;;;;;5009297;28;45856;-72
2023/01/03 10:34:38;;;;;;;17.60;9.73;;;10.20;58.30;;;;;;5010206;28;46525;-71
2023/01/03 10:37:24;;;;;;;13.10;7.83;;;10.20;58.70;;;;;;5008909;28;48088;-72
2023/01/03 10:40:01;;;;;;;7.77;5.40;;;10.20;58.50;;;;;;5007725;28;46466;-72
2023/01/03 10:42:31;;;;;;;6.37;3.97;;;10.30;58.30;;;;;;5007467;28;45914;-72
2023/01/03 10:45:01;;;;;;;7.00;4.27;;;10.30;58.10;;;;;;5011424;28;46496;-72
2023/01/03 10:47:27;;;;;;;6.07;3.77;;;10.30;58.30;;;;;;5011046;28;46439;-72
2023/01/03 10:50:00;;;;;;;5.30;4.00;;;10.30;58.20;;;;;;5009264;28;46540;-72
2023/01/03 10:52:39;;;;;;;8.50;2.80;;;10.40;57.90;;;;;;5006804;28;46446;-71
2023/01/03 10:55:12;;;;;;;5.90;3.60;;;10.40;57.70;;;;;;5008183;28;46426;-72
2023/01/03 10:57:45;;;;;;;5.13;3.70;;;10.40;58.00;;;;;;5007830;28;46475;-72
2023/01/03 11:00:20;;;;;;;5.50;3.80;;;10.40;57.90;;;;;;5008692;28;45982;-74
2023/01/03 11:02:46;;;;;;;4.97;3.90;;;10.40;57.80;;;;;;5009243;28;46767;-73
2023/01/03 11:05:17;;;;;;;6.00;3.70;;;10.40;57.80;;;;;;5009446;28;46386;-72
2023/01/03 11:07:53;;;;;;;8.10;4.07;;;10.40;57.90;;;;;;5006892;28;46452;-73
2023/01/03 11:10:20;;;;;;;6.90;3.50;;;10.30;58.10;;;;;;5010992;28;46382;-74
2023/01/03 11:12:45;;;;;;;4.60;3.20;;;10.20;58.10;;;;;;5008771;28;46395;-73
2023/01/03 11:15:31;;;;;;;5.37;3.57;;;10.30;58.40;;;;;;5008460;28;46054;-73
2023/01/03 11:18:02;;;;;;;7.07;2.93;;;10.30;58.30;;;;;;5010948;28;46008;-72
2023/01/03 11:20:37;;;;;;;8.97;4.63;;;10.30;58.10;;;;;;5010697;28;46488;-74
2023/01/03 11:23:13;;;;;;;13.10;5.40;;;10.40;57.80;;;;;;5007799;28;46374;-72
2023/01/03 11:26:03;;;;;;;6.63;3.93;;;10.50;57.60;;;;;;5011422;28;46518;-71
2023/01/03 11:28:44;;;;;;;7.80;4.10;;;10.60;57.40;;;;;;5009977;28;47151;-73
2023/01/03 11:31:32;;;;;;;7.20;3.67;;;10.70;57.10;;;;;;5010928;28;46445;-72
2023/01/03 11:34:05;;;;;;;6.20;4.00;;;10.70;56.90;;;;;;5005943;28;46486;-75
2023/01/03 11:36:33;;;;;;;10.73;6.53;;;10.70;56.70;;;;;;5009801;28;46641;-71
2023/01/03 11:39:13;;;;;;;8.40;5.80;;;10.70;56.90;;;;;;5008615;28;47253;-72
2023/01/03 11:41:50;;;;;;;6.57;3.83;;;10.70;57.00;;;;;;5009840;28;46421;-72
2023/01/03 11:45:00;;;;;;;8.13;4.63;;;10.60;57.00;;;;;;5007967;28;46514;-72
2023/01/03 11:48:10;;;;;;;6.00;3.70;;;10.60;57.20;;;;;;4986724;28;45948;-72
2023/01/03 11:51:02;;;;;;;8.80;4.20;;;10.60;57.00;;;;;;4994416;28;47023;-72
2023/01/03 11:53:36;;;;;;;6.07;3.60;;;10.70;56.90;;;;;;4979348;28;46581;-72
2023/01/03 11:56:30;;;;;;;8.20;5.67;;;10.70;56.60;;;;;;5003548;28;46423;-73
2023/01/03 11:59:21;;;;;;;6.65;3.50;;;10.90;56.30;;;;;;5005940;28;46492;-73
2023/01/03 12:01:47;;;;;;;5.60;3.60;;;10.90;56.10;;;;;;5009389;28;46007;-73
2023/01/03 12:04:38;;;;;;;6.97;3.60;;;11.00;56.00;;;;;;5006331;28;46368;-73
2023/01/03 12:07:07;;;;;;;5.40;3.57;;;11.10;55.90;;;;;;5008272;28;46587;-73
2023/01/03 12:09:50;;;;;;;6.47;3.60;;;11.00;56.00;;;;;;5007891;28;46568;-72
2023/01/03 12:12:42;;;;;;;4.57;2.90;;;11.00;56.00;;;;;;5002614;28;48207;-73
2023/01/03 12:15:21;;;;;;;4.87;3.40;;;11.00;56.00;;;;;;5006783;28;46462;-71
2023/01/03 12:18:00;;;;;;;5.30;3.20;;;11.00;55.90;;;;;;5007355;28;46445;-72
2023/01/03 12:20:31;;;;;;;5.50;3.03;;;11.00;56.00;;;;;;5010534;28;46331;-72
2023/01/03 12:23:14;;;;;;;4.87;3.27;;;11.00;55.90;;;;;;5007993;28;47183;-72
2023/01/03 12:25:46;;;;;;;11.37;6.60;;;11.10;56.10;;;;;;5008517;28;46442;-73
2023/01/03 12:28:21;;;;;;;10.57;6.70;;;11.10;56.00;;;;;;5009162;28;46526;-72
2023/01/03 12:30:51;;;;;;;6.93;4.20;;;11.20;56.00;;;;;;5010816;28;46094;-72
2023/01/03 12:33:29;;;;;;;6.60;4.80;;;11.20;56.00;;;;;;5014325;28;46580;-72
2023/01/03 12:36:19;;;;;;;8.13;5.47;;;11.20;56.00;;;;;;5010780;28;45875;-72
2023/01/03 12:38:57;;;;;;;7.73;4.23;;;11.20;56.00;;;;;;5008571;28;46380;-73
2023/01/03 12:41:33;;;;;;;9.57;5.70;;;11.20;55.90;;;;;;5009266;28;46415;-73
2023/01/03 12:44:09;;;;;;;9.47;5.50;;;11.20;56.00;;;;;;5010389;28;46308;-72
2023/01/03 12:46:43;;;;;;;28.07;14.77;;;11.10;55.80;;;;;;5012207;28;46452;-71
2023/01/03 12:49:11;;;;;;;8.80;5.37;;;11.10;56.00;;;;;;5012348;28;46392;-72
2023/01/03 12:51:37;;;;;;;4.90;3.17;;;11.10;55.90;;;;;;5013140;28;46424;-72
2023/01/03 12:54:41;;;;;;;4.87;3.53;;;11.00;55.90;;;;;;5013064;28;46728;-71
2023/01/03 12:57:17;;;;;;;4.63;3.27;;;11.00;56.10;;;;;;5012680;28;45859;-72
2023/01/03 12:59:51;;;;;;;5.23;2.60;;;11.00;55.90;;;;;;5011889;28;46435;-72
2023/01/03 13:02:32;;;;;;;4.00;2.55;;;10.90;56.10;;;;;;5010637;28;46814;-72
2023/01/03 13:05:13;;;;;;;5.53;3.67;;;10.90;54.50;;;;;;5008379;28;46367;-72
2023/01/03 13:07:45;;;;;;;6.03;3.47;;;10.90;55.80;;;;;;5009010;28;46653;-72
2023/01/03 13:10:17;;;;;;;4.53;3.33;;;10.90;55.90;;;;;;5010809;28;46354;-73
2023/01/03 13:12:49;;;;;;;5.53;3.00;;;11.00;55.80;;;;;;5012928;28;46386;-74
2023/01/03 13:15:29;;;;;;;4.40;2.57;;;11.00;55.70;;;;;;5007713;28;46490;-73
2023/01/03 13:18:14;;;;;;;5.50;3.00;;;11.00;55.50;;;;;;5006983;28;46292;-73
2023/01/03 13:20:40;;;;;;;4.90;2.80;;;11.10;55.60;;;;;;5009678;28;46155;-73
2023/01/03 13:23:29;;;;;;;4.23;2.50;;;11.20;55.40;;;;;;5011266;28;46632;-74
2023/01/03 13:26:04;;;;;;;10.70;6.43;;;11.20;55.50;;;;;;5011687;28;48023;-72
2023/01/03 13:28:31;;;;;;;5.17;3.80;;;11.10;55.30;;;;;;5010509;28;45775;-74
2023/01/03 13:31:18;;;;;;;4.63;3.37;;;11.10;55.40;;;;;;5010567;28;46535;-72
2023/01/03 13:33:54;;;;;;;3.57;2.53;;;11.20;55.30;;;;;;5010608;28;46671;-72
2023/01/03 13:36:21;;;;;;;4.70;3.20;;;11.10;54.90;;;;;;5009399;28;46549;-73
2023/01/03 13:38:46;;;;;;;3.93;2.80;;;11.10;54.90;;;;;;5009529;28;46427;-73
2023/01/03 13:41:35;;;;;;;5.70;2.93;;;11.10;54.80;;;;;;5010623;28;46455;-72
2023/01/03 13:44:27;;;;;;;12.73;6.20;;;11.10;54.60;;;;;;5008034;28;46458;-72
2023/01/03 13:46:53;;;;;;;29.10;12.10;;;11.10;54.70;;;;;;5008144;28;47323;-72
2023/01/03 13:49:22;;;;;;;4.43;2.70;;;11.00;55.00;;;;;;5008047;28;46422;-72
2023/01/03 13:51:56;;;;;;;3.87;2.47;;;11.00;55.30;;;;;;5011391;28;45835;-72
2023/01/03 13:54:21;;;;;;;78.00;33.27;;;11.00;55.40;;;;;;5010320;28;46408;-72
2023/01/03 13:56:47;;;;;;;51.40;23.90;;;11.00;55.60;;;;;;5009549;28;46333;-72
2023/01/03 13:59:41;;;;;;;13.60;6.10;;;11.00;55.70;;;;;;5010270;28;46339;-71
2023/01/03 14:02:30;;;;;;;11.67;5.80;;;11.00;55.70;;;;;;5011357;28;46331;-71
2023/01/03 14:05:37;;;;;;;7.77;4.57;;;11.00;55.60;;;;;;5007746;28;46562;-71
2023/01/03 14:08:09;;;;;;;8.03;2.93;;;10.90;55.50;;;;;;5011567;28;47077;-72
2023/01/03 14:10:47;;;;;;;4.80;2.67;;;10.80;55.30;;;;;;5007044;28;46793;-72
2023/01/03 14:13:50;;;;;;;2.80;2.20;;;10.80;55.60;;;;;;5011383;28;46444;-72
2023/01/03 14:16:35;;;;;;;4.93;2.50;;;10.70;55.50;;;;;;5004124;28;45883;-71
2023/01/03 14:19:09;;;;;;;5.60;2.47;;;10.80;55.60;;;;;;5008035;28;46706;-72
2023/01/03 14:21:43;;;;;;;3.63;2.47;;;10.80;55.70;;;;;;5008533;28;46414;-71